createdAt,value
2023-04-19T00:01:49.856Z,98826.88
2023-04-19T00:04:17.250Z,98821.65
2023-04-19T00:06:45.655Z,98818.41
2023-04-19T00:09:13.062Z,98813.17
2023-04-19T00:11:40.368Z,98810.33
2023-04-19T00:14:07.522Z,98808.13
2023-04-19T00:16:35.090Z,98802.15
2023-04-19T00:19:03.708Z,98795.33
2023-04-19T00:21:30.952Z,98791.64
2023-04-19T00:23:58.275Z,98790.27
2023-04-19T00:26:25.621Z,98795.32
2023-04-19T00:29:12.950Z,98795.38
2023-04-19T00:31:40.462Z,98793.11
2023-04-19T00:34:07.786Z,98786.83
2023-04-19T00:36:35.037Z,98787.08
2023-04-19T00:39:02.237Z,98790.27
2023-04-19T00:41:30.968Z,98783.77
2023-04-19T00:43:58.190Z,98780.02
2023-04-19T00:46:25.578Z,98777.16
2023-04-19T00:48:53.010Z,98775.40
2023-04-19T00:51:20.213Z,98772.65
2023-04-19T00:53:47.667Z,98769.58
2023-04-19T00:56:15.240Z,98764.05
2023-04-19T00:58:42.593Z,98759.83
2023-04-19T01:01:10.292Z,98752.83
2023-04-19T01:03:37.768Z,98756.58
2023-04-19T01:06:05.248Z,98750.02
2023-04-19T01:08:33.309Z,98752.23
2023-04-19T01:11:00.501Z,98748.48
2023-04-19T01:13:27.743Z,98747.89
2023-04-19T01:15:55.421Z,98741.94
2023-04-19T01:18:24.165Z,98736.08
2023-04-19T01:20:52.688Z,98729.14
2023-04-19T01:23:20.903Z,98727.69
2023-04-19T01:25:49.791Z,98732.11
2023-04-19T01:28:17.008Z,98729.29
2023-04-19T01:30:45.394Z,98722.45
2023-04-19T01:33:12.591Z,98721.19
2023-04-19T01:35:40.053Z,98720.05
2023-04-19T01:38:07.967Z,98720.04
2023-04-19T01:40:35.480Z,98713.77
2023-04-19T01:43:03.069Z,98718.59
2023-04-19T01:45:30.173Z,98716.60
2023-04-19T01:47:58.611Z,98716.23
2023-04-19T01:50:25.843Z,98715.11
2023-04-19T01:52:55.343Z,98716.95
2023-04-19T01:55:22.447Z,98714.17
2023-04-19T01:58:09.655Z,98714.70
2023-04-19T02:00:37.066Z,98715.33
2023-04-19T02:03:04.991Z,98715.64
2023-04-19T02:05:32.380Z,98711.62
2023-04-19T02:08:00.935Z,98705.70
2023-04-19T02:10:30.793Z,98702.29
2023-04-19T02:12:58.345Z,98699.06
2023-04-19T02:15:25.579Z,98699.54
2023-04-19T02:17:53.279Z,98697.38
2023-04-19T02:20:20.900Z,98700.44
2023-04-19T02:22:49.431Z,98703.97
2023-04-19T02:25:16.859Z,98704.74
2023-04-19T02:27:46.742Z,98700.39
2023-04-19T02:30:14.098Z,98700.86
2023-04-19T02:32:41.491Z,98696.71
2023-04-19T02:35:08.954Z,98699.10
2023-04-19T02:37:36.227Z,98697.70
2023-04-19T02:40:04.798Z,98700.38
2023-04-19T02:42:32.542Z,98699.05
2023-04-19T02:44:59.751Z,98696.15
2023-04-19T02:47:27.661Z,98690.71
2023-04-19T02:49:57.138Z,98690.44
2023-04-19T02:52:25.507Z,98689.68
2023-04-19T02:54:52.749Z,98692.66
2023-04-19T02:57:20.546Z,98693.57
2023-04-19T02:59:48.979Z,98697.72
2023-04-19T03:02:16.254Z,98695.69
2023-04-19T03:04:43.445Z,98695.98
2023-04-19T03:07:11.558Z,98698.42
2023-04-19T03:09:42.578Z,98692.05
2023-04-19T03:12:09.720Z,98687.87
2023-04-19T03:14:37.594Z,98682.89
2023-04-19T03:17:05.397Z,98679.33
2023-04-19T03:19:33.328Z,98673.19
2023-04-19T03:22:01.141Z,98674.31
2023-04-19T03:24:29.949Z,98671.82
2023-04-19T03:26:58.822Z,98671.93
2023-04-19T03:29:28.524Z,98668.64
2023-04-19T03:32:17.872Z,98664.30
2023-04-19T03:34:45.102Z,98655.80
2023-04-19T03:37:12.525Z,98649.47
2023-04-19T03:39:39.530Z,98647.05
2023-04-19T03:42:07.751Z,98638.24
2023-04-19T03:44:58.964Z,98633.23
2023-04-19T03:47:26.783Z,98632.38
2023-04-19T03:49:56.979Z,98626.77
2023-04-19T03:52:25.475Z,98622.09
2023-04-19T03:54:52.621Z,98621.73
2023-04-19T03:57:47.990Z,98617.45
2023-04-19T04:00:20.571Z,98615.23
2023-04-19T04:02:50.259Z,98608.80
2023-04-19T04:05:17.832Z,98603.02
2023-04-19T04:07:46.199Z,98598.87
2023-04-19T04:10:13.484Z,98597.09
2023-04-19T04:12:42.912Z,98595.04
2023-04-19T04:15:13.123Z,98588.90
2023-04-19T04:17:44.753Z,98587.02
2023-04-19T04:20:13.205Z,98581.00
2023-04-19T04:22:42.637Z,98573.58
2023-04-19T04:25:10.112Z,98569.31
2023-04-19T04:27:39.478Z,98570.66
2023-04-19T04:30:10.752Z,98570.14
2023-04-19T04:32:41.240Z,98570.02
2023-04-19T04:35:14.096Z,98564.77
2023-04-19T04:37:56.253Z,98557.90
2023-04-19T04:40:23.611Z,98559.04
2023-04-19T04:42:53.680Z,98560.17
2023-04-19T04:45:20.961Z,98562.25
2023-04-19T04:47:50.969Z,98561.29
2023-04-19T04:50:18.361Z,98559.25
2023-04-19T04:52:46.420Z,98556.14
2023-04-19T04:55:20.020Z,98545.94
2023-04-19T04:57:50.738Z,98536.02
2023-04-19T05:00:25.603Z,98530.33
2023-04-19T05:03:01.195Z,98527.60
2023-04-19T05:05:29.395Z,98531.38
2023-04-19T05:08:17.349Z,98532.36
2023-04-19T05:10:48.165Z,98527.67
2023-04-19T05:13:15.710Z,98533.33
2023-04-19T05:15:44.105Z,98533.30
2023-04-19T05:18:11.715Z,98539.34
2023-04-19T05:20:39.120Z,98548.52
2023-04-19T05:23:14.416Z,98549.08
2023-04-19T05:25:42.228Z,98547.39
2023-04-19T05:28:10.164Z,98541.33
2023-04-19T05:30:43.951Z,98539.69
2023-04-19T05:33:12.691Z,98538.70
2023-04-19T05:35:40.505Z,98537.04
2023-04-19T05:38:07.666Z,98535.45
2023-04-19T05:40:36.430Z,98536.30
2023-04-19T05:43:03.764Z,98531.79
2023-04-19T05:45:31.404Z,98535.02
2023-04-19T05:47:58.563Z,98542.30
2023-04-19T05:51:01.137Z,98554.48
2023-04-19T05:54:00.940Z,98565.37
2023-04-19T05:56:30.529Z,98560.95
2023-04-19T05:59:00.618Z,98561.19
2023-04-19T06:01:27.997Z,98571.64
2023-04-19T06:03:55.721Z,98563.95
2023-04-19T06:06:24.868Z,98566.29
2023-04-19T06:08:54.799Z,98571.13
2023-04-19T06:11:28.865Z,98575.94
2023-04-19T06:14:03.069Z,98590.00
2023-04-19T06:16:30.867Z,98599.06
2023-04-19T06:18:58.097Z,98614.52
2023-04-19T06:21:25.138Z,98622.30
2023-04-19T06:23:52.963Z,98625.30
2023-04-19T06:26:20.191Z,98633.21
2023-04-19T06:28:47.595Z,98634.85
2023-04-19T06:31:14.952Z,98641.12
2023-04-19T06:33:43.647Z,98646.40
2023-04-19T06:36:10.925Z,98655.55
2023-04-19T06:38:38.131Z,98665.91
2023-04-19T06:41:05.340Z,98672.17
2023-04-19T06:43:33.970Z,98683.56
2023-04-19T06:46:01.226Z,98692.10
2023-04-19T06:48:28.902Z,98704.75
2023-04-19T06:50:58.538Z,98717.81
2023-04-19T06:53:27.044Z,98722.38
2023-04-19T06:56:06.305Z,98728.63
2023-04-19T06:58:35.081Z,98728.92
2023-04-19T07:01:03.994Z,98721.08
2023-04-19T07:03:32.266Z,98729.73
2023-04-19T07:06:00.331Z,98735.64
2023-04-19T07:08:38.277Z,98737.84
2023-04-19T07:11:15.687Z,98747.66
2023-04-19T07:13:43.132Z,98748.54
2023-04-19T07:16:10.865Z,98742.05
2023-04-19T07:18:38.098Z,98738.48
2023-04-19T07:21:05.549Z,98739.73
2023-04-19T07:23:35.605Z,98746.27
2023-04-19T07:26:03.029Z,98753.26
2023-04-19T07:28:30.927Z,98759.52
2023-04-19T07:30:58.629Z,98756.81
2023-04-19T07:33:28.039Z,98754.36
2023-04-19T07:35:56.209Z,98761.23
2023-04-19T07:38:24.589Z,98762.23
2023-04-19T07:40:51.824Z,98757.66
2023-04-19T07:43:19.084Z,98766.61
2023-04-19T07:45:46.192Z,98776.50
2023-04-19T07:48:13.341Z,98784.29
2023-04-19T07:50:40.799Z,98792.10
2023-04-19T07:53:07.745Z,98803.96
2023-04-19T07:55:35.202Z,98809.95
2023-04-19T07:58:02.878Z,98810.95
2023-04-19T08:00:30.041Z,98814.90
2023-04-19T08:02:57.764Z,98818.88
2023-04-19T08:05:26.178Z,98820.75
2023-04-19T08:07:53.800Z,98826.98
2023-04-19T08:10:22.362Z,98829.34
2023-04-19T08:16:05.271Z,98838.15
2023-04-19T08:18:11.902Z,98840.25
2023-04-19T08:20:42.109Z,98851.35
2023-04-19T08:23:21.320Z,98858.97
2023-04-19T08:25:50.335Z,98864.37
2023-04-19T08:28:18.452Z,98868.05
2023-04-19T08:30:45.970Z,98874.70
2023-04-19T08:33:13.411Z,98882.29
2023-04-19T08:35:41.102Z,98889.77
2023-04-19T08:38:08.365Z,98889.52
2023-04-19T08:40:35.722Z,98896.17
2023-04-19T08:43:06.802Z,98900.57
2023-04-19T08:45:34.236Z,98907.70
2023-04-19T08:48:02.362Z,98908.08
2023-04-19T08:50:38.784Z,98910.16
2023-04-19T08:53:24.557Z,98901.71
2023-04-19T08:56:10.772Z,98902.21
2023-04-19T08:59:03.987Z,98902.74
2023-04-19T09:01:36.169Z,98905.36
2023-04-19T09:04:31.549Z,98901.98
2023-04-19T09:06:54.750Z,98906.98
2023-04-19T09:11:57.585Z,98908.69
2023-04-19T09:14:25.693Z,98912.61
2023-04-19T09:16:53.215Z,98908.15
2023-04-19T09:19:24.674Z,98906.50
2023-04-19T09:21:53.583Z,98896.92
2023-04-19T09:27:14.521Z,98899.04
2023-04-19T09:29:41.793Z,98901.67
2023-04-19T09:32:09.189Z,98898.48
2023-04-19T09:34:36.382Z,98902.27
2023-04-19T09:37:17.936Z,98907.74
2023-04-19T09:40:00.346Z,98909.83
2023-04-19T09:47:45.705Z,98915.38
2023-04-19T09:50:23.948Z,98918.08
2023-04-19T09:52:53.921Z,98918.00
2023-04-19T09:55:27.880Z,98916.50
2023-04-19T09:57:57.865Z,98916.49
2023-04-19T10:00:24.991Z,98918.42
2023-04-19T10:02:57.228Z,98920.54
2023-04-19T10:05:25.391Z,98915.92
2023-04-19T10:07:59.685Z,98918.08
2023-04-19T10:10:41.263Z,98912.92
2023-04-19T10:15:51.391Z,98920.06
2023-04-19T10:18:22.781Z,98920.36
2023-04-19T10:20:55.136Z,98919.46
2023-04-19T10:23:23.061Z,98917.59
2023-04-19T10:25:54.694Z,98917.38
2023-04-19T10:28:25.126Z,98918.02
2023-04-19T10:30:55.923Z,98916.46
2023-04-19T10:33:27.309Z,98923.42
2023-04-19T10:36:01.451Z,98923.90
2023-04-19T10:38:38.536Z,98920.80
2023-04-19T10:41:11.950Z,98921.61
2023-04-19T10:43:43.299Z,98916.23
2023-04-19T10:46:25.172Z,98919.83
2023-04-19T10:48:59.631Z,98923.80
2023-04-19T10:51:28.170Z,98927.05
2023-04-19T10:53:59.381Z,98922.84
2023-04-19T10:56:32.843Z,98924.88
2023-04-19T10:59:10.848Z,98924.13
2023-04-19T11:01:44.833Z,98927.17
2023-04-19T11:04:13.375Z,98930.17
2023-04-19T11:06:54.883Z,98930.92
2023-04-19T11:09:28.695Z,98933.02
2023-04-19T11:11:57.676Z,98936.04
2023-04-19T11:14:24.803Z,98939.67
2023-04-19T11:16:52.458Z,98943.69
2023-04-19T11:19:20.444Z,98945.82
2023-04-19T11:21:47.695Z,98946.13
2023-04-19T11:24:18.613Z,98948.58
2023-04-19T11:26:46.975Z,98944.74
2023-04-19T11:29:14.367Z,98943.83
2023-04-19T11:31:45.928Z,98942.27
2023-04-19T11:34:13.771Z,98945.27
2023-04-19T11:36:48.080Z,98942.02
2023-04-19T11:39:16.025Z,98940.48
2023-04-19T11:41:43.372Z,98939.73
2023-04-19T11:44:14.706Z,98940.55
2023-04-19T11:46:43.112Z,98947.48
2023-04-19T11:49:10.356Z,98945.95
2023-04-19T11:51:40.976Z,98938.96
2023-04-19T11:54:16.445Z,98937.75
2023-04-19T11:56:57.106Z,98934.92
2023-04-19T11:59:24.331Z,98939.77
2023-04-19T12:01:51.615Z,98933.79
2023-04-19T12:04:21.214Z,98936.19
2023-04-19T12:06:56.019Z,98936.56
2023-04-19T12:09:24.218Z,98932.49
2023-04-19T12:11:53.411Z,98931.58
2023-04-19T12:14:22.521Z,98929.42
2023-04-19T12:17:05.733Z,98924.14
2023-04-19T12:19:37.171Z,98922.36
2023-04-19T12:22:25.638Z,98927.53
2023-04-19T12:24:59.831Z,98921.55
2023-04-19T12:27:27.107Z,98924.99
2023-04-19T12:29:54.459Z,98923.89
2023-04-19T12:32:22.053Z,98921.04
2023-04-19T12:34:49.405Z,98921.43
2023-04-19T12:37:16.938Z,98918.92
2023-04-19T12:39:44.208Z,98917.41
2023-04-19T12:42:11.394Z,98922.31
2023-04-19T12:44:38.815Z,98916.08
2023-04-19T12:47:06.171Z,98915.35
2023-04-19T12:49:33.768Z,98912.93
2023-04-19T12:52:01.039Z,98911.46
2023-04-19T12:54:28.742Z,98911.73
2023-04-19T12:56:55.822Z,98914.92
2023-04-19T12:59:23.299Z,98910.65
2023-04-19T13:01:50.606Z,98914.29
2023-04-19T13:04:18.337Z,98915.58
2023-04-19T13:06:46.123Z,98914.80
2023-04-19T13:09:15.056Z,98917.04
2023-04-19T13:11:43.072Z,98912.79
2023-04-19T13:14:10.318Z,98917.77
2023-04-19T13:16:38.171Z,98909.62
2023-04-19T13:19:05.278Z,98906.02
2023-04-19T13:21:33.046Z,98906.55
2023-04-19T13:24:01.146Z,98900.59
2023-04-19T13:26:28.806Z,98902.79
2023-04-19T13:28:56.384Z,98901.63
2023-04-19T13:31:23.709Z,98902.64
2023-04-19T13:34:10.848Z,98902.44
2023-04-19T13:36:41.503Z,98907.10
2023-04-19T13:39:09.677Z,98905.52
2023-04-19T13:41:37.209Z,98902.41
2023-04-19T13:44:04.758Z,98896.60
2023-04-19T13:46:32.454Z,98897.00
2023-04-19T13:48:59.798Z,98900.47
2023-04-19T13:54:27.277Z,98900.39
2023-04-19T13:56:54.658Z,98892.31
2023-04-19T13:59:21.701Z,98892.02
2023-04-19T14:01:48.936Z,98889.80
2023-04-19T14:04:16.365Z,98885.32
2023-04-19T14:06:44.042Z,98880.34
2023-04-19T14:09:35.865Z,98879.65
2023-04-19T14:12:08.277Z,98879.52
2023-04-19T14:14:35.581Z,98876.00
2023-04-19T14:17:11.593Z,98868.87
2023-04-19T14:19:38.861Z,98862.08
2023-04-19T14:22:06.599Z,98854.95
2023-04-19T14:24:33.803Z,98845.54
2023-04-19T14:29:32.203Z,98815.64
2023-04-19T14:32:17.070Z,98806.38
2023-04-19T14:34:55.053Z,98791.88
2023-04-19T14:37:28.784Z,98779.92
2023-04-19T14:39:57.996Z,98767.48
2023-04-19T14:42:31.848Z,98757.70
2023-04-19T14:44:59.416Z,98746.49
2023-04-19T14:47:35.042Z,98741.31
2023-04-19T14:50:04.929Z,98734.34
2023-04-19T14:52:34.656Z,98732.24
2023-04-19T14:55:03.658Z,98729.13
2023-04-19T14:57:33.716Z,98726.61
2023-04-19T15:00:02.176Z,98724.42
2023-04-19T15:02:40.667Z,98727.25
2023-04-19T15:05:08.462Z,98729.98
2023-04-19T15:08:23.309Z,98729.49
2023-04-19T15:11:26.156Z,98730.95
2023-04-19T15:13:56.969Z,98735.61
2023-04-19T15:17:17.746Z,98734.95
2023-04-19T15:19:46.566Z,98735.83
2023-04-19T15:22:13.697Z,98731.99
2023-04-19T15:24:41.209Z,98731.55
2023-04-19T15:27:08.564Z,98728.52
2023-04-19T15:29:40.875Z,98722.52
2023-04-19T15:32:08.987Z,98717.10
2023-04-19T15:34:36.092Z,98713.19
2023-04-19T15:37:06.100Z,98708.70
2023-04-19T15:39:33.528Z,98700.46
2023-04-19T15:42:01.534Z,98692.52
2023-04-19T15:44:29.172Z,98685.17
2023-04-19T15:46:56.603Z,98676.08
2023-04-19T15:49:23.997Z,98671.89
2023-04-19T15:51:53.859Z,98666.72
2023-04-19T15:54:22.648Z,98660.71
2023-04-19T15:56:49.754Z,98655.48
2023-04-19T15:59:18.551Z,98645.50
2023-04-19T16:04:34.054Z,98634.27
2023-04-19T16:07:01.666Z,98630.41
2023-04-19T16:09:29.087Z,98631.17
2023-04-19T16:11:56.283Z,98627.77
2023-04-19T16:14:23.651Z,98627.35
2023-04-19T16:16:53.154Z,98627.63
2023-04-19T16:19:23.061Z,98621.00
2023-04-19T16:21:51.757Z,98620.48
2023-04-19T16:24:18.921Z,98615.28
2023-04-19T16:27:13.757Z,98611.58
2023-04-19T16:29:47.495Z,98597.48
2023-04-19T16:32:16.078Z,98590.02
2023-04-19T16:34:43.255Z,98580.27
2023-04-19T16:37:10.554Z,98574.38
2023-04-19T16:39:44.432Z,98576.79
2023-04-19T16:42:14.448Z,98578.48
2023-04-19T16:44:41.672Z,98571.90
2023-04-19T16:47:09.008Z,98574.66
2023-04-19T16:49:36.408Z,98570.59
2023-04-19T16:52:04.003Z,98564.80
2023-04-19T16:54:35.735Z,98554.73
2023-04-19T16:57:03.110Z,98548.90
2023-04-19T16:59:32.088Z,98542.83
2023-04-19T17:02:02.565Z,98537.32
2023-04-19T17:04:31.935Z,98538.59
2023-04-19T17:10:51.765Z,98531.19
2023-04-19T17:13:20.906Z,98522.41
2023-04-19T17:15:59.839Z,98518.30
2023-04-19T17:21:58.724Z,98509.77
2023-04-19T17:24:56.680Z,98505.46
2023-04-19T17:27:59.633Z,98502.67
2023-04-19T17:30:39.576Z,98496.28
2023-04-19T17:38:12.953Z,98483.20
2023-04-19T17:41:05.300Z,98481.22
2023-04-19T17:43:46.650Z,98481.99
2023-04-19T17:46:41.610Z,98477.23
2023-04-19T17:50:20.425Z,98474.86
2023-04-19T17:53:04.960Z,98468.01
2023-04-19T17:59:58.865Z,98463.60
2023-04-19T18:02:28.457Z,98462.66
2023-04-19T18:05:32.214Z,98458.44
2023-04-19T18:08:00.732Z,98457.66
2023-04-19T18:10:28.122Z,98452.16
2023-04-19T18:12:55.346Z,98446.14
2023-04-19T18:15:22.560Z,98445.27
2023-04-19T18:17:51.425Z,98445.00
2023-04-19T18:20:19.165Z,98439.83
2023-04-19T18:22:49.445Z,98437.77
2023-04-19T18:25:18.092Z,98433.60
2023-04-19T18:27:45.436Z,98429.81
2023-04-19T18:30:13.192Z,98425.81
2023-04-19T18:32:40.549Z,98420.19
2023-04-19T18:35:10.296Z,98412.80
2023-04-19T18:37:38.994Z,98399.83
2023-04-19T18:40:07.621Z,98388.80
2023-04-19T18:42:35.616Z,98387.48
2023-04-19T18:45:04.907Z,98377.70
2023-04-19T18:47:32.641Z,98371.40
2023-04-19T18:50:05.341Z,98365.52
2023-04-19T18:52:39.713Z,98357.25
2023-04-19T18:55:07.710Z,98355.51
2023-04-19T18:57:38.411Z,98346.02
2023-04-19T19:00:09.079Z,98339.39
2023-04-19T19:02:45.819Z,98339.23
2023-04-19T19:05:19.351Z,98327.06
2023-04-19T19:07:48.453Z,98322.66
2023-04-19T19:14:46.470Z,98310.96
2023-04-19T19:17:39.234Z,98301.30
2023-04-19T19:20:39.882Z,98293.39
2023-04-19T19:24:05.161Z,98284.75
2023-04-19T19:26:48.439Z,98272.20
2023-04-19T19:29:22.621Z,98264.20
2023-04-19T19:31:54.405Z,98255.16
2023-04-19T19:34:29.065Z,98258.76
2023-04-19T19:36:58.654Z,98257.00
2023-04-19T19:39:26.895Z,98247.69
2023-04-19T19:42:05.739Z,98238.58
2023-04-19T19:44:35.227Z,98235.42
2023-04-19T19:47:09.184Z,98228.42
2023-04-19T19:50:33.655Z,98224.79
2023-04-19T19:52:37.312Z,98223.89
2023-04-19T19:55:04.739Z,98213.67
2023-04-19T19:58:20.635Z,98206.34
2023-04-19T20:05:20.950Z,98202.60
2023-04-19T20:08:01.019Z,98195.16
2023-04-19T20:10:30.311Z,98194.09
2023-04-19T20:12:58.050Z,98188.20
2023-04-19T20:15:25.447Z,98180.14
2023-04-19T20:17:52.661Z,98180.35
2023-04-19T20:20:20.629Z,98175.81
2023-04-19T20:22:48.405Z,98170.95
2023-04-19T20:25:15.623Z,98170.26
2023-04-19T20:27:43.662Z,98171.25
2023-04-19T20:30:13.626Z,98172.68
2023-04-19T20:32:42.416Z,98165.27
2023-04-19T20:35:11.587Z,98163.92
2023-04-19T20:37:41.673Z,98160.61
2023-04-19T20:40:13.479Z,98158.72
2023-04-19T20:42:42.935Z,98156.95
2023-04-19T20:45:10.309Z,98152.32
2023-04-19T20:47:38.702Z,98145.31
2023-04-19T20:50:06.770Z,98142.02
2023-04-19T20:52:34.707Z,98141.13
2023-04-19T20:55:01.793Z,98136.58
2023-04-19T21:00:41.200Z,98122.23
2023-04-19T21:03:09.568Z,98118.98
2023-04-19T21:05:37.203Z,98114.25
2023-04-19T21:08:05.452Z,98115.06
2023-04-19T21:10:32.648Z,98110.44
2023-04-19T21:13:00.783Z,98109.41
2023-04-19T21:15:28.314Z,98105.53
2023-04-19T21:17:55.735Z,98104.11
2023-04-19T21:20:23.431Z,98103.92
2023-04-19T21:22:50.816Z,98101.46
2023-04-19T21:25:18.121Z,98093.52
2023-04-19T21:27:45.518Z,98094.55
2023-04-19T21:30:13.323Z,98094.45
2023-04-19T21:32:40.921Z,98092.14
2023-04-19T21:35:08.501Z,98087.72
2023-04-19T21:37:36.127Z,98087.22
2023-04-19T21:40:03.535Z,98091.50
2023-04-19T21:42:31.327Z,98086.74
2023-04-19T21:44:58.665Z,98080.89
2023-04-19T21:47:26.103Z,98073.71
2023-04-19T21:49:53.713Z,98075.53
2023-04-19T21:52:21.033Z,98076.59
2023-04-19T21:54:48.465Z,98075.96
2023-04-19T21:57:17.114Z,98074.41
2023-04-19T21:59:44.745Z,98069.55
2023-04-19T22:02:11.944Z,98068.52
2023-04-19T22:04:42.175Z,98060.73
2023-04-19T22:07:18.346Z,98053.14
2023-04-19T22:09:46.055Z,98050.59
2023-04-19T22:12:14.139Z,98049.59
2023-04-19T22:14:41.308Z,98052.44
2023-04-19T22:17:09.725Z,98051.57
2023-04-19T22:19:37.714Z,98042.14
2023-04-19T22:22:05.344Z,98033.48
2023-04-19T22:24:35.891Z,98025.52
2023-04-19T22:27:06.421Z,98013.79
2023-04-19T22:29:35.719Z,98004.73
2023-04-19T22:32:03.230Z,98002.70
2023-04-19T22:34:30.873Z,98008.95
2023-04-19T22:36:58.014Z,97995.09
2023-04-19T22:39:26.296Z,97986.64
2023-04-19T22:41:53.604Z,97990.97
2023-04-19T22:44:20.801Z,97997.25
2023-04-19T22:46:48.058Z,98001.80
2023-04-19T22:49:23.014Z,97995.45
2023-04-19T22:51:53.995Z,97998.54
2023-04-19T22:54:22.067Z,97993.69
2023-04-19T22:56:52.666Z,97984.91
2023-04-19T22:59:19.846Z,97981.60
2023-04-19T23:01:50.913Z,97975.36
2023-04-19T23:04:22.939Z,97966.30
2023-04-19T23:06:50.093Z,97958.05
2023-04-19T23:09:21.424Z,97953.08
2023-04-19T23:11:48.928Z,97941.88
2023-04-19T23:14:19.473Z,97939.67
2023-04-19T23:16:46.709Z,97940.58
2023-04-19T23:19:16.227Z,97939.96
2023-04-19T23:21:44.165Z,97930.67
2023-04-19T23:24:11.498Z,97924.33
2023-04-19T23:26:40.004Z,97926.71
2023-04-19T23:29:08.650Z,97921.47
2023-04-19T23:31:36.130Z,97918.55
2023-04-19T23:34:03.580Z,97913.23
2023-04-19T23:36:31.390Z,97910.72
2023-04-19T23:39:00.122Z,97912.23
2023-04-19T23:41:27.375Z,97910.88
2023-04-19T23:43:54.838Z,97914.89
2023-04-19T23:46:24.882Z,97917.98
2023-04-19T23:48:52.137Z,97918.42
2023-04-19T23:51:20.362Z,97918.30
2023-04-19T23:54:11.757Z,97907.77
2023-04-19T23:56:39.029Z,97900.30
2023-04-19T23:59:06.683Z,97894.06
